Time;durP1;ratioP1;P1;durP2;ratioP2;P2;SDS_P1;SDS_P2;PMS_P1;PMS_P2;Temp;Humidity;BMP_temperature;BMP_pressure;BME280_temperature;BME280_humidity;BME280_pressure;Samples;Min_cycle;Max_cycle;Signal;HPM_P1;HPM_P2
2023/09/03 00:01:11;;;;;;;;;;;22.10;53.70;;;;;;5103782;28;19931;-62
2023/09/03 00:03:39;;;;;;;;;;;22.10;53.70;;;;;;5106037;28;19943;-62
2023/09/03 00:06:05;;;;;;;;;;;22.10;53.70;;;;;;5101453;28;19924;-61
2023/09/03 00:08:33;;;;;;;;;;;22.10;53.70;;;;;;5104727;28;19924;-62
2023/09/03 00:11:00;;;;;;;;;;;22.10;53.70;;;;;;5101728;28;19924;-62
2023/09/03 00:13:27;;;;;;;;;;;22.10;53.70;;;;;;5100032;28;19924;-62
2023/09/03 00:15:54;;;;;;;;;;;22.10;53.70;;;;;;5099720;28;19928;-61
2023/09/03 00:18:21;;;;;;;;;;;22.10;53.70;;;;;;5093071;28;19924;-62
2023/09/03 00:20:57;;;;;;;;;;;22.10;53.70;;;;;;5087015;28;19957;-62
2023/09/03 00:23:24;;;;;;;;;;;22.10;53.70;;;;;;5100060;28;19936;-62
2023/09/03 00:25:52;;;;;;;;;;;22.10;53.80;;;;;;5091543;28;19977;-61
2023/09/03 00:28:19;;;;;;;;;;;22.10;53.70;;;;;;5096502;28;19988;-62
2023/09/03 00:30:45;;;;;;;;;;;22.10;53.80;;;;;;5101536;28;19924;-61
2023/09/03 00:33:12;;;;;;;;;;;22.10;53.80;;;;;;5101132;28;19923;-61
2023/09/03 00:35:40;;;;;;;;;;;22.10;53.80;;;;;;5110946;28;19973;-62
2023/09/03 00:38:07;;;;;;;;;;;22.10;53.80;;;;;;5086541;28;19931;-62
2023/09/03 00:40:37;;;;;;;;;;;22.10;53.80;;;;;;5112715;28;19932;-62
2023/09/03 00:43:06;;;;;;;;;;;22.00;53.70;;;;;;5115272;28;19938;-62
2023/09/03 00:45:32;;;;;;;;;;;22.10;53.80;;;;;;5089480;28;19928;-61
2023/09/03 00:47:59;;;;;;;;;;;22.10;53.80;;;;;;5096298;28;19970;-62
2023/09/03 00:50:26;;;;;;;;;;;22.10;53.80;;;;;;5087435;28;19935;-62
2023/09/03 00:52:53;;;;;;;;;;;22.10;53.80;;;;;;5090153;28;19932;-62
2023/09/03 00:55:20;;;;;;;;;;;22.10;53.80;;;;;;5093853;28;19989;-62
2023/09/03 00:57:48;;;;;;;;;;;22.10;53.80;;;;;;5099808;28;20005;-61
2023/09/03 01:00:17;;;;;;;;;;;22.10;53.80;;;;;;5102667;28;19931;-61
2023/09/03 01:02:44;;;;;;;;;;;22.10;53.90;;;;;;5106168;28;19923;-62
2023/09/03 01:05:12;;;;;;;;;;;22.10;53.80;;;;;;5127003;27;19928;-62
2023/09/03 01:07:39;;;;;;;;;;;22.10;53.80;;;;;;5101934;28;19943;-61
2023/09/03 01:10:06;;;;;;;;;;;22.00;53.70;;;;;;5088568;28;19951;-61
2023/09/03 01:12:35;;;;;;;;;;;22.00;53.70;;;;;;5113858;28;19930;-62
2023/09/03 01:15:03;;;;;;;;;;;22.00;53.70;;;;;;5088581;28;19947;-62
2023/09/03 01:17:32;;;;;;;;;;;22.00;53.70;;;;;;5106505;28;19923;-62
2023/09/03 01:20:04;;;;;;;;;;;22.00;53.70;;;;;;5100957;28;19924;-62
2023/09/03 01:22:55;;;;;;;;;;;22.00;53.80;;;;;;5093565;28;19978;-62
2023/09/03 01:25:35;;;;;;;;;;;22.00;53.70;;;;;;5090033;28;19945;-62
2023/09/03 01:28:12;;;;;;;;;;;22.00;53.70;;;;;;5112510;28;20031;-62
2023/09/03 01:30:38;;;;;;;;;;;22.00;53.70;;;;;;5112586;27;20010;-62
2023/09/03 01:33:05;;;;;;;;;;;22.00;53.70;;;;;;5091719;28;19985;-62
2023/09/03 01:35:32;;;;;;;;;;;22.00;53.80;;;;;;5091857;28;19924;-61
2023/09/03 01:37:59;;;;;;;;;;;22.00;53.70;;;;;;5093725;28;19928;-61
2023/09/03 01:40:25;;;;;;;;;;;22.00;53.70;;;;;;5114393;28;19920;-62
2023/09/03 01:42:52;;;;;;;;;;;22.00;53.80;;;;;;5112601;27;20328;-62
2023/09/03 01:45:20;;;;;;;;;;;22.00;53.80;;;;;;5102503;28;19924;-62
2023/09/03 01:47:49;;;;;;;;;;;22.00;53.80;;;;;;5092927;28;19947;-62
2023/09/03 01:50:17;;;;;;;;;;;22.00;53.80;;;;;;5106627;28;19924;-62
2023/09/03 01:52:45;;;;;;;;;;;22.00;53.80;;;;;;5105375;28;19984;-62
2023/09/03 01:55:11;;;;;;;;;;;22.00;53.80;;;;;;5092593;28;19924;-62
2023/09/03 01:57:40;;;;;;;;;;;22.00;53.80;;;;;;5093472;28;20011;-62
2023/09/03 02:00:08;;;;;;;;;;;22.00;53.90;;;;;;5092213;28;19970;-62
2023/09/03 02:02:36;;;;;;;;;;;22.00;53.80;;;;;;5092272;28;19954;-62
2023/09/03 02:05:03;;;;;;;;;;;22.00;53.80;;;;;;5109026;28;19932;-62
2023/09/03 02:07:30;;;;;;;;;;;22.00;53.80;;;;;;5099135;28;19971;-62
2023/09/03 02:09:57;;;;;;;;;;;22.00;53.80;;;;;;5103543;28;19924;-62
2023/09/03 02:12:24;;;;;;;;;;;22.00;53.80;;;;;;5092407;28;19969;-62
2023/09/03 02:14:51;;;;;;;;;;;22.00;53.80;;;;;;5084143;28;19925;-62
2023/09/03 02:17:20;;;;;;;;;;;22.00;53.80;;;;;;5100052;28;19973;-62
2023/09/03 02:19:48;;;;;;;;;;;22.00;53.80;;;;;;5092265;28;19924;-62
2023/09/03 02:22:15;;;;;;;;;;;22.00;53.80;;;;;;5117944;27;19928;-62
2023/09/03 02:24:42;;;;;;;;;;;22.00;53.80;;;;;;5092673;28;19924;-62
2023/09/03 02:27:09;;;;;;;;;;;22.00;53.80;;;;;;5094150;28;19920;-62
2023/09/03 02:29:36;;;;;;;;;;;22.00;53.80;;;;;;5107043;28;19967;-61
2023/09/03 02:32:03;;;;;;;;;;;22.00;53.70;;;;;;5085903;28;19928;-62
2023/09/03 02:34:29;;;;;;;;;;;22.00;53.70;;;;;;5101869;28;19920;-63
2023/09/03 02:36:57;;;;;;;;;;;22.00;53.70;;;;;;5110006;28;20012;-62
2023/09/03 02:39:24;;;;;;;;;;;22.00;53.70;;;;;;5099070;28;19924;-62
2023/09/03 02:41:51;;;;;;;;;;;22.00;53.80;;;;;;5108805;28;19924;-62
2023/09/03 02:44:18;;;;;;;;;;;22.00;53.70;;;;;;5125311;27;19924;-63
2023/09/03 02:46:45;;;;;;;;;;;22.00;53.70;;;;;;5091785;28;19994;-62
2023/09/03 02:49:11;;;;;;;;;;;22.00;53.70;;;;;;5102998;28;19920;-62
2023/09/03 02:51:38;;;;;;;;;;;22.00;53.70;;;;;;5120649;27;20317;-63
2023/09/03 02:54:06;;;;;;;;;;;22.00;53.70;;;;;;5111343;27;19932;-63
2023/09/03 02:56:33;;;;;;;;;;;22.00;53.70;;;;;;5105834;28;19924;-63
2023/09/03 02:59:00;;;;;;;;;;;22.00;53.70;;;;;;5089169;28;19930;-63
2023/09/03 03:01:27;;;;;;;;;;;22.00;53.70;;;;;;5092298;28;19924;-63
2023/09/03 03:03:53;;;;;;;;;;;22.00;53.70;;;;;;5111662;28;19923;-63
2023/09/03 03:06:20;;;;;;;;;;;21.90;53.60;;;;;;5099224;28;19928;-63
2023/09/03 03:08:47;;;;;;;;;;;21.90;53.70;;;;;;5091246;28;19927;-63
2023/09/03 03:11:15;;;;;;;;;;;21.90;53.60;;;;;;5091160;28;19924;-63
2023/09/03 03:13:42;;;;;;;;;;;21.90;53.70;;;;;;5092362;28;19932;-62
2023/09/03 03:16:10;;;;;;;;;;;21.90;53.60;;;;;;5089030;28;19927;-63
2023/09/03 03:18:37;;;;;;;;;;;21.90;53.60;;;;;;5097468;28;19931;-63
2023/09/03 03:21:05;;;;;;;;;;;21.90;53.60;;;;;;5111945;28;19944;-63
2023/09/03 03:23:31;;;;;;;;;;;21.90;53.60;;;;;;5119683;27;19928;-63
2023/09/03 03:25:58;;;;;;;;;;;21.90;53.60;;;;;;5099795;28;19973;-63
2023/09/03 03:28:26;;;;;;;;;;;21.90;53.60;;;;;;5091347;28;19928;-63
2023/09/03 03:30:53;;;;;;;;;;;21.90;53.60;;;;;;5092348;28;19924;-63
2023/09/03 03:33:20;;;;;;;;;;;21.90;53.60;;;;;;5101655;28;19923;-63
2023/09/03 03:35:46;;;;;;;;;;;21.90;53.60;;;;;;5099677;28;19923;-63
2023/09/03 03:38:13;;;;;;;;;;;21.90;53.60;;;;;;5099157;28;19931;-62
2023/09/03 03:40:40;;;;;;;;;;;21.90;53.60;;;;;;5098467;28;19924;-61
2023/09/03 03:43:07;;;;;;;;;;;21.90;53.60;;;;;;5091233;28;19955;-61
2023/09/03 03:45:35;;;;;;;;;;;21.90;53.60;;;;;;5091285;28;19932;-61
2023/09/03 03:48:02;;;;;;;;;;;21.90;53.60;;;;;;5105994;28;19981;-62
2023/09/03 03:50:37;;;;;;;;;;;21.90;53.60;;;;;;5088631;28;19977;-62
2023/09/03 03:53:03;;;;;;;;;;;21.90;53.60;;;;;;5090265;28;19931;-62
2023/09/03 03:55:30;;;;;;;;;;;21.90;53.60;;;;;;5083167;28;19924;-62
2023/09/03 03:57:57;;;;;;;;;;;21.90;53.60;;;;;;5081081;28;19932;-62
2023/09/03 04:00:24;;;;;;;;;;;21.90;53.50;;;;;;5089736;28;19998;-62
2023/09/03 04:02:52;;;;;;;;;;;21.90;53.50;;;;;;5106349;28;19934;-62
2023/09/03 04:05:19;;;;;;;;;;;21.90;53.50;;;;;;5089980;28;19963;-62
2023/09/03 04:07:46;;;;;;;;;;;21.90;53.50;;;;;;5087027;28;19924;-62
2023/09/03 04:10:12;;;;;;;;;;;21.90;53.50;;;;;;5114628;28;19931;-62
2023/09/03 04:12:39;;;;;;;;;;;21.90;53.50;;;;;;5110507;28;19931;-61
2023/09/03 04:15:06;;;;;;;;;;;21.90;53.40;;;;;;5099519;28;19928;-61
2023/09/03 04:17:33;;;;;;;;;;;21.90;53.50;;;;;;5105518;28;19950;-61
2023/09/03 04:20:02;;;;;;;;;;;21.90;53.40;;;;;;5097828;28;19931;-61
2023/09/03 04:22:29;;;;;;;;;;;21.90;53.40;;;;;;5104001;28;19924;-61
2023/09/03 04:24:56;;;;;;;;;;;21.90;53.30;;;;;;5092657;28;19924;-61
2023/09/03 04:27:22;;;;;;;;;;;21.90;53.40;;;;;;5112287;27;19988;-61
2023/09/03 04:29:49;;;;;;;;;;;21.90;53.40;;;;;;5105413;28;19931;-61
2023/09/03 04:32:16;;;;;;;;;;;21.90;53.30;;;;;;5085018;28;19924;-62
2023/09/03 04:34:43;;;;;;;;;;;21.90;53.40;;;;;;5092694;28;20438;-61
2023/09/03 04:37:11;;;;;;;;;;;21.90;53.30;;;;;;5093305;28;19931;-62
2023/09/03 04:39:38;;;;;;;;;;;21.90;53.30;;;;;;5100328;28;20412;-62
2023/09/03 04:42:05;;;;;;;;;;;21.80;53.20;;;;;;5103276;28;19924;-62
2023/09/03 04:44:32;;;;;;;;;;;21.90;53.30;;;;;;5123566;27;19924;-62
2023/09/03 04:46:59;;;;;;;;;;;21.90;53.30;;;;;;5113242;28;19924;-62
2023/09/03 04:49:26;;;;;;;;;;;21.90;53.30;;;;;;5116963;27;19928;-62
2023/09/03 04:51:52;;;;;;;;;;;21.80;53.20;;;;;;5092943;28;19989;-62
2023/09/03 04:54:20;;;;;;;;;;;21.90;53.30;;;;;;5097347;28;19969;-62
2023/09/03 04:56:47;;;;;;;;;;;21.80;53.20;;;;;;5105312;28;19924;-62
2023/09/03 04:59:14;;;;;;;;;;;21.80;53.20;;;;;;5092945;28;19924;-61
2023/09/03 05:01:42;;;;;;;;;;;21.80;53.20;;;;;;5098951;28;19931;-62
2023/09/03 05:04:08;;;;;;;;;;;21.80;53.20;;;;;;5098542;27;19932;-61
2023/09/03 05:06:35;;;;;;;;;;;21.80;53.20;;;;;;5114674;28;19930;-62
2023/09/03 05:09:02;;;;;;;;;;;21.80;53.20;;;;;;5098266;28;19981;-62
2023/09/03 05:11:30;;;;;;;;;;;21.80;53.80;;;;;;5093533;28;19946;-62
2023/09/03 05:13:57;;;;;;;;;;;21.80;53.20;;;;;;5111594;27;19931;-62
2023/09/03 05:16:26;;;;;;;;;;;21.80;53.20;;;;;;5095555;28;19931;-63
2023/09/03 05:18:53;;;;;;;;;;;21.80;53.10;;;;;;5092313;28;20027;-62
2023/09/03 05:21:20;;;;;;;;;;;21.80;53.20;;;;;;5105955;28;19931;-62
2023/09/03 05:23:47;;;;;;;;;;;21.80;53.10;;;;;;5092744;28;19984;-62
2023/09/03 05:26:14;;;;;;;;;;;21.80;53.10;;;;;;5092823;28;20186;-62
2023/09/03 05:28:42;;;;;;;;;;;21.80;53.10;;;;;;5094039;28;19924;-62
2023/09/03 05:31:10;;;;;;;;;;;21.80;53.10;;;;;;5099563;28;20385;-62
2023/09/03 05:33:37;;;;;;;;;;;21.80;53.10;;;;;;5091859;28;20018;-62
2023/09/03 05:36:03;;;;;;;;;;;21.80;53.10;;;;;;5113597;27;19931;-62
2023/09/03 05:38:30;;;;;;;;;;;21.80;53.00;;;;;;5126020;27;19981;-62
2023/09/03 05:40:58;;;;;;;;;;;21.80;53.00;;;;;;5093125;28;19924;-62
2023/09/03 05:43:25;;;;;;;;;;;21.80;53.00;;;;;;5092549;28;19924;-63
2023/09/03 05:45:53;;;;;;;;;;;21.80;53.00;;;;;;5092560;28;19931;-62
2023/09/03 05:48:20;;;;;;;;;;;21.80;53.00;;;;;;5092842;28;19951;-62
2023/09/03 05:50:47;;;;;;;;;;;21.80;53.00;;;;;;5104316;27;20316;-62
2023/09/03 05:53:14;;;;;;;;;;;21.80;52.90;;;;;;5095312;28;19931;-62
2023/09/03 05:55:42;;;;;;;;;;;21.70;52.90;;;;;;5098952;28;19947;-62
2023/09/03 05:58:09;;;;;;;;;;;21.70;53.20;;;;;;5093750;28;19939;-62
2023/09/03 06:00:40;;;;;;;;;;;21.70;52.90;;;;;;5092974;28;19939;-62
2023/09/03 06:03:08;;;;;;;;;;;21.70;53.50;;;;;;5107240;28;19924;-62
2023/09/03 06:05:35;;;;;;;;;;;21.70;52.90;;;;;;5088934;28;19954;-63
2023/09/03 06:08:02;;;;;;;;;;;21.70;52.80;;;;;;5096857;28;19923;-63
2023/09/03 06:10:28;;;;;;;;;;;21.70;52.90;;;;;;5090578;28;19932;-63
2023/09/03 06:12:55;;;;;;;;;;;21.70;52.90;;;;;;5096066;28;19924;-63
2023/09/03 06:15:22;;;;;;;;;;;21.70;52.90;;;;;;5088049;28;19928;-62
2023/09/03 06:17:52;;;;;;;;;;;21.70;52.90;;;;;;5099531;28;20122;-63
2023/09/03 06:20:20;;;;;;;;;;;21.70;52.90;;;;;;5109204;27;19928;-63
2023/09/03 06:22:47;;;;;;;;;;;21.80;53.00;;;;;;5095105;28;19998;-63
2023/09/03 06:25:13;;;;;;;;;;;21.70;53.00;;;;;;5089189;28;19936;-60
2023/09/03 06:27:40;;;;;;;;;;;21.70;52.90;;;;;;5090245;28;20001;-63
2023/09/03 06:30:08;;;;;;;;;;;21.70;53.00;;;;;;5089342;28;19924;-63
2023/09/03 06:32:35;;;;;;;;;;;21.70;53.00;;;;;;5089391;28;19936;-63
2023/09/03 06:35:02;;;;;;;;;;;21.70;53.00;;;;;;5088501;28;19989;-63
2023/09/03 06:37:30;;;;;;;;;;;21.70;53.00;;;;;;5088909;28;19934;-63
2023/09/03 06:39:57;;;;;;;;;;;21.80;53.20;;;;;;5086886;28;19940;-63
2023/09/03 06:42:25;;;;;;;;;;;21.70;53.10;;;;;;5088456;28;19937;-63
2023/09/03 06:44:52;;;;;;;;;;;21.70;53.10;;;;;;5090988;28;19978;-63
2023/09/03 06:47:18;;;;;;;;;;;21.70;53.10;;;;;;5092520;28;19923;-63
2023/09/03 06:49:45;;;;;;;;;;;21.70;53.20;;;;;;5121989;27;19924;-62
2023/09/03 06:52:12;;;;;;;;;;;21.70;53.20;;;;;;5105111;28;19924;-63
2023/09/03 06:54:40;;;;;;;;;;;21.70;53.20;;;;;;5086940;28;19931;-64
2023/09/03 06:57:07;;;;;;;;;;;21.70;53.20;;;;;;5087615;28;19924;-63
2023/09/03 06:59:34;;;;;;;;;;;21.80;53.30;;;;;;5088019;28;20019;-63
2023/09/03 07:02:00;;;;;;;;;;;21.80;53.30;;;;;;5105075;28;19931;-63
2023/09/03 07:04:27;;;;;;;;;;;21.70;53.30;;;;;;5085576;28;19989;-63
2023/09/03 07:06:54;;;;;;;;;;;21.80;53.40;;;;;;5086959;28;19924;-63
2023/09/03 07:09:21;;;;;;;;;;;21.80;53.50;;;;;;5088918;28;19924;-63
2023/09/03 07:11:49;;;;;;;;;;;21.80;53.50;;;;;;5106272;28;19928;-63
2023/09/03 07:14:16;;;;;;;;;;;21.80;53.50;;;;;;5105957;27;19956;-63
2023/09/03 07:16:42;;;;;;;;;;;21.80;53.50;;;;;;5086156;28;19924;-63
2023/09/03 07:19:09;;;;;;;;;;;21.80;53.50;;;;;;5089371;28;19931;-62
2023/09/03 07:21:36;;;;;;;;;;;21.70;53.50;;;;;;5088599;28;19993;-63
2023/09/03 07:24:03;;;;;;;;;;;21.80;53.60;;;;;;5088961;28;19924;-63
2023/09/03 07:26:29;;;;;;;;;;;21.80;53.60;;;;;;5089101;28;19932;-63
2023/09/03 07:28:57;;;;;;;;;;;21.70;53.50;;;;;;5087704;28;19928;-62
2023/09/03 07:31:24;;;;;;;;;;;21.80;53.70;;;;;;5118475;27;19920;-63
2023/09/03 07:33:51;;;;;;;;;;;21.80;53.70;;;;;;5105094;27;19924;-63
2023/09/03 07:36:18;;;;;;;;;;;21.80;53.80;;;;;;5107988;27;19931;-63
2023/09/03 07:38:44;;;;;;;;;;;21.80;53.80;;;;;;5087115;28;19931;-63
2023/09/03 07:41:11;;;;;;;;;;;21.80;53.80;;;;;;5091349;28;19953;-63
2023/09/03 07:43:38;;;;;;;;;;;21.80;53.80;;;;;;5087956;28;19928;-62
2023/09/03 07:46:06;;;;;;;;;;;21.80;53.80;;;;;;5105477;28;19932;-63
2023/09/03 07:48:34;;;;;;;;;;;21.80;53.90;;;;;;5089132;28;19924;-63
2023/09/03 07:51:01;;;;;;;;;;;21.80;53.90;;;;;;5083398;28;19946;-62
2023/09/03 07:53:28;;;;;;;;;;;21.80;53.90;;;;;;5089576;28;19928;-62
2023/09/03 07:55:55;;;;;;;;;;;21.80;53.90;;;;;;5084563;28;19928;-62
2023/09/03 07:58:22;;;;;;;;;;;21.80;53.90;;;;;;5092724;28;19931;-62
2023/09/03 08:00:50;;;;;;;;;;;21.80;54.00;;;;;;5089934;28;19924;-62
2023/09/03 08:03:18;;;;;;;;;;;21.80;54.00;;;;;;5088922;28;19924;-62
2023/09/03 08:05:45;;;;;;;;;;;21.80;54.00;;;;;;5088653;28;20047;-63
2023/09/03 08:08:12;;;;;;;;;;;21.80;54.10;;;;;;5105996;28;19920;-61
2023/09/03 08:10:38;;;;;;;;;;;21.80;54.10;;;;;;5097174;28;19925;-60
2023/09/03 08:13:05;;;;;;;;;;;21.80;54.40;;;;;;5102471;28;19940;-60
2023/09/03 08:15:32;;;;;;;;;;;21.80;54.50;;;;;;5113537;28;19931;-60
2023/09/03 08:17:59;;;;;;;;;;;21.80;54.80;;;;;;5090038;28;19928;-61
2023/09/03 08:20:28;;;;;;;;;;;21.80;54.70;;;;;;5110928;28;19932;-60
2023/09/03 08:22:55;;;;;;;;;;;21.70;54.70;;;;;;5093241;28;19930;-60
2023/09/03 08:25:21;;;;;;;;;;;21.70;54.70;;;;;;5087689;28;19932;-60
2023/09/03 08:27:48;;;;;;;;;;;21.70;54.60;;;;;;5086101;28;19924;-61
2023/09/03 08:30:17;;;;;;;;;;;21.70;54.50;;;;;;5097072;28;19924;-60
2023/09/03 08:32:43;;;;;;;;;;;21.60;54.50;;;;;;5098714;28;19924;-60
2023/09/03 08:35:10;;;;;;;;;;;21.60;54.70;;;;;;5099308;28;20005;-61
2023/09/03 08:37:38;;;;;;;;;;;21.60;54.70;;;;;;5101691;28;19931;-60
2023/09/03 08:40:06;;;;;;;;;;;21.50;54.70;;;;;;5106242;28;19931;-60
2023/09/03 08:42:32;;;;;;;;;;;21.50;54.80;;;;;;5107106;28;19932;-60
2023/09/03 08:45:01;;;;;;;;;;;21.50;55.00;;;;;;5106230;28;19924;-60
2023/09/03 08:47:28;;;;;;;;;;;21.50;55.00;;;;;;5105465;28;19928;-59
2023/09/03 08:49:55;;;;;;;;;;;21.50;55.10;;;;;;5090517;28;19924;-61
2023/09/03 08:52:22;;;;;;;;;;;21.50;55.10;;;;;;5089369;28;20001;-60
2023/09/03 08:54:50;;;;;;;;;;;21.50;55.10;;;;;;5088894;28;20457;-60
2023/09/03 08:57:17;;;;;;;;;;;21.50;55.00;;;;;;5091905;28;19939;-60
2023/09/03 08:59:44;;;;;;;;;;;21.50;55.10;;;;;;5090843;28;19924;-60
2023/09/03 09:02:12;;;;;;;;;;;21.50;55.10;;;;;;5090196;28;19935;-60
2023/09/03 09:04:39;;;;;;;;;;;21.50;55.10;;;;;;5105587;28;19924;-60
2023/09/03 09:07:06;;;;;;;;;;;21.50;55.10;;;;;;5089216;28;19936;-61
2023/09/03 09:09:33;;;;;;;;;;;21.50;55.10;;;;;;5095514;28;19924;-60
2023/09/03 09:12:03;;;;;;;;;;;21.50;55.10;;;;;;5118302;28;19928;-60
2023/09/03 09:14:32;;;;;;;;;;;21.50;55.10;;;;;;5102844;28;19974;-60
2023/09/03 09:16:59;;;;;;;;;;;21.50;54.80;;;;;;5113397;27;19951;-60
2023/09/03 09:19:25;;;;;;;;;;;21.40;54.90;;;;;;5094974;28;19970;-59
2023/09/03 09:21:52;;;;;;;;;;;21.40;55.00;;;;;;5094071;28;19924;-60
2023/09/03 09:24:19;;;;;;;;;;;21.40;55.20;;;;;;5092668;28;20123;-60
2023/09/03 09:26:46;;;;;;;;;;;21.40;55.20;;;;;;5110252;28;19945;-60
2023/09/03 09:29:14;;;;;;;;;;;21.40;55.20;;;;;;5105361;28;19930;-60
2023/09/03 09:31:41;;;;;;;;;;;21.40;55.40;;;;;;5097697;28;19923;-59
2023/09/03 09:34:09;;;;;;;;;;;21.40;55.40;;;;;;5105289;28;19931;-60
2023/09/03 09:36:36;;;;;;;;;;;21.40;55.40;;;;;;5112889;27;19963;-59
2023/09/03 09:39:07;;;;;;;;;;;21.40;55.30;;;;;;5089654;28;19924;-59
2023/09/03 09:41:37;;;;;;;;;;;21.40;55.50;;;;;;5101562;27;20401;-60
2023/09/03 09:44:08;;;;;;;;;;;21.30;55.40;;;;;;5097772;28;19924;-60
2023/09/03 09:46:36;;;;;;;;;;;21.40;55.70;;;;;;5109170;27;20285;-60
2023/09/03 09:49:03;;;;;;;;;;;21.40;55.70;;;;;;5091265;28;20482;-61
2023/09/03 09:51:30;;;;;;;;;;;21.30;55.20;;;;;;5091708;28;19924;-59
2023/09/03 09:53:57;;;;;;;;;;;21.30;54.80;;;;;;5089421;28;19924;-60
2023/09/03 09:56:28;;;;;;;;;;;21.30;54.40;;;;;;5094477;28;19936;-59
2023/09/03 09:58:55;;;;;;;;;;;21.30;54.50;;;;;;5098183;28;20351;-60
2023/09/03 10:01:23;;;;;;;;;;;21.30;54.60;;;;;;5084392;28;19924;-60
2023/09/03 10:03:51;;;;;;;;;;;21.30;54.70;;;;;;5093379;28;19928;-60
2023/09/03 10:06:18;;;;;;;;;;;21.30;54.40;;;;;;5096138;28;19975;-59
2023/09/03 10:08:45;;;;;;;;;;;21.20;54.20;;;;;;5094143;28;19924;-59
2023/09/03 10:11:12;;;;;;;;;;;21.20;54.30;;;;;;5090146;28;19932;-61
2023/09/03 10:13:41;;;;;;;;;;;21.20;54.50;;;;;;5087377;28;20388;-61
2023/09/03 10:16:08;;;;;;;;;;;21.20;54.70;;;;;;5085258;28;19928;-61
2023/09/03 10:18:36;;;;;;;;;;;21.20;54.90;;;;;;5097626;28;20014;-61
2023/09/03 10:21:05;;;;;;;;;;;21.20;55.10;;;;;;5084532;28;19924;-61
2023/09/03 10:23:35;;;;;;;;;;;21.20;55.30;;;;;;5085307;28;20024;-61
2023/09/03 10:26:02;;;;;;;;;;;21.20;55.30;;;;;;5085527;28;19928;-60
2023/09/03 10:28:29;;;;;;;;;;;21.20;55.20;;;;;;5094940;28;19984;-60
2023/09/03 10:30:56;;;;;;;;;;;21.20;55.30;;;;;;5096714;28;19954;-61
2023/09/03 10:33:22;;;;;;;;;;;21.20;55.40;;;;;;5085700;28;19924;-60
2023/09/03 10:36:04;;;;;;;;;;;21.20;55.80;;;;;;5086309;28;19925;-61
2023/09/03 10:38:32;;;;;;;;;;;21.20;55.90;;;;;;5106008;28;20036;-61
2023/09/03 10:41:14;;;;;;;;;;;21.20;55.50;;;;;;5099891;28;19925;-61
2023/09/03 10:43:41;;;;;;;;;;;21.20;55.40;;;;;;5086558;28;19932;-60
2023/09/03 10:46:07;;;;;;;;;;;21.20;55.10;;;;;;5090078;28;19973;-60
2023/09/03 10:48:35;;;;;;;;;;;21.20;55.00;;;;;;5091750;28;19923;-59
2023/09/03 10:51:02;;;;;;;;;;;21.20;55.20;;;;;;5097693;28;19924;-59
2023/09/03 10:53:39;;;;;;;;;;;21.20;55.30;;;;;;5096585;28;19928;-60
2023/09/03 10:56:08;;;;;;;;;;;21.20;55.30;;;;;;5089587;28;19924;-58
2023/09/03 10:58:34;;;;;;;;;;;21.20;55.40;;;;;;5090330;28;19977;-60
2023/09/03 11:01:17;;;;;;;;;;;21.20;55.50;;;;;;5101791;28;19924;-60
2023/09/03 11:03:46;;;;;;;;;;;21.20;55.60;;;;;;5106128;28;19923;-60
2023/09/03 11:06:17;;;;;;;;;;;21.30;55.50;;;;;;5090522;28;19928;-61
2023/09/03 11:08:45;;;;;;;;;;;21.30;55.10;;;;;;5088003;28;20276;-60
2023/09/03 11:11:12;;;;;;;;;;;21.30;54.90;;;;;;5077438;28;19928;-59
2023/09/03 11:13:39;;;;;;;;;;;21.30;54.80;;;;;;5104978;28;19923;-63
2023/09/03 11:16:06;;;;;;;;;;;21.30;54.90;;;;;;5080680;28;19928;-61
2023/09/03 11:18:45;;;;;;;;;;;21.30;54.90;;;;;;5086318;28;19935;-61
2023/09/03 11:21:12;;;;;;;;;;;21.30;55.00;;;;;;5094083;28;19924;-63
2023/09/03 11:23:38;;;;;;;;;;;21.30;55.00;;;;;;5097630;28;19989;-62
2023/09/03 11:26:06;;;;;;;;;;;21.30;55.10;;;;;;5093378;28;19924;-62
2023/09/03 11:28:35;;;;;;;;;;;21.40;55.10;;;;;;5081859;28;19924;-62
2023/09/03 11:31:03;;;;;;;;;;;21.40;55.10;;;;;;5083674;28;19931;-62
2023/09/03 11:33:29;;;;;;;;;;;21.40;55.10;;;;;;5083532;28;19924;-60
2023/09/03 11:35:56;;;;;;;;;;;21.40;55.10;;;;;;5097501;28;19928;-63
2023/09/03 11:38:24;;;;;;;;;;;21.40;55.10;;;;;;5080043;28;19924;-63
2023/09/03 11:40:54;;;;;;;;;;;21.50;55.20;;;;;;5091396;28;19924;-65
2023/09/03 11:43:22;;;;;;;;;;;21.50;55.20;;;;;;5081296;28;19924;-64
2023/09/03 11:45:48;;;;;;;;;;;21.50;55.20;;;;;;5103880;28;19985;-65
2023/09/03 11:48:15;;;;;;;;;;;21.50;55.10;;;;;;5106660;28;19924;-63
2023/09/03 11:50:42;;;;;;;;;;;21.60;55.20;;;;;;5084879;28;20376;-65
2023/09/03 11:53:10;;;;;;;;;;;21.60;55.10;;;;;;5096145;28;19938;-65
2023/09/03 11:55:37;;;;;;;;;;;21.60;55.00;;;;;;5100223;28;19924;-64
2023/09/03 11:58:07;;;;;;;;;;;21.60;55.00;;;;;;5098362;28;22356;-64
2023/09/03 12:00:35;;;;;;;;;;;21.60;54.90;;;;;;5107344;27;19928;-64
2023/09/03 12:03:03;;;;;;;;;;;21.60;54.90;;;;;;5106143;28;19924;-64
2023/09/03 12:05:29;;;;;;;;;;;21.60;54.90;;;;;;5093910;28;19924;-65
2023/09/03 12:08:01;;;;;;;;;;;21.70;54.80;;;;;;5094778;28;19928;-65
2023/09/03 12:10:27;;;;;;;;;;;21.70;54.70;;;;;;5089956;28;19978;-65
2023/09/03 12:12:54;;;;;;;;;;;21.70;54.50;;;;;;5088686;28;19928;-65
2023/09/03 12:15:21;;;;;;;;;;;21.70;54.40;;;;;;5111855;28;19927;-65
2023/09/03 12:17:49;;;;;;;;;;;21.70;54.30;;;;;;5089528;28;19924;-66
2023/09/03 12:20:32;;;;;;;;;;;21.70;54.20;;;;;;5121399;28;19928;-65
2023/09/03 12:23:06;;;;;;;;;;;21.70;54.30;;;;;;5088706;28;19981;-66
2023/09/03 12:25:33;;;;;;;;;;;21.70;54.30;;;;;;5083158;28;19924;-66
2023/09/03 12:28:00;;;;;;;;;;;21.70;54.00;;;;;;5089169;28;19950;-67
2023/09/03 12:30:27;;;;;;;;;;;21.70;53.80;;;;;;5115746;28;19935;-66
2023/09/03 12:32:55;;;;;;;;;;;21.70;53.60;;;;;;5083662;28;20119;-66
2023/09/03 12:35:22;;;;;;;;;;;21.70;53.60;;;;;;5083548;28;19939;-66
2023/09/03 12:37:49;;;;;;;;;;;21.70;53.50;;;;;;5104205;28;19985;-66
2023/09/03 12:40:16;;;;;;;;;;;21.70;53.40;;;;;;5089403;28;19924;-66
2023/09/03 12:42:42;;;;;;;;;;;21.70;53.30;;;;;;5089892;28;19924;-66
2023/09/03 12:45:10;;;;;;;;;;;21.70;53.40;;;;;;5082500;28;19971;-65
2023/09/03 12:47:37;;;;;;;;;;;21.70;53.40;;;;;;5086052;28;19939;-65
2023/09/03 12:50:05;;;;;;;;;;;21.70;53.40;;;;;;5083108;28;19928;-66
2023/09/03 12:52:32;;;;;;;;;;;21.70;53.40;;;;;;5094667;28;19956;-65
2023/09/03 12:54:59;;;;;;;;;;;21.70;53.40;;;;;;5086594;28;19978;-65
2023/09/03 12:57:26;;;;;;;;;;;21.70;53.30;;;;;;5088558;28;19938;-65
2023/09/03 12:59:53;;;;;;;;;;;21.70;53.30;;;;;;5096364;28;19924;-65
2023/09/03 13:02:20;;;;;;;;;;;21.70;53.30;;;;;;5082339;28;19948;-66
2023/09/03 13:04:47;;;;;;;;;;;21.70;53.30;;;;;;5064474;28;20012;-66
2023/09/03 13:07:15;;;;;;;;;;;21.70;53.30;;;;;;5080357;28;19920;-66
2023/09/03 13:09:42;;;;;;;;;;;21.70;53.30;;;;;;5091226;28;19932;-65
2023/09/03 13:12:09;;;;;;;;;;;21.70;53.30;;;;;;5089173;28;19928;-66
2023/09/03 13:14:35;;;;;;;;;;;21.70;53.30;;;;;;5101759;28;19927;-65
2023/09/03 13:17:02;;;;;;;;;;;21.70;53.40;;;;;;5092414;28;19928;-66
2023/09/03 13:19:29;;;;;;;;;;;21.70;53.40;;;;;;5095039;28;19932;-66
2023/09/03 13:21:56;;;;;;;;;;;21.70;53.50;;;;;;5090741;28;19955;-66
2023/09/03 13:24:24;;;;;;;;;;;21.80;53.60;;;;;;5100262;28;19919;-66
2023/09/03 13:26:52;;;;;;;;;;;21.80;53.70;;;;;;5121298;27;19932;-65
2023/09/03 13:29:19;;;;;;;;;;;21.80;53.70;;;;;;5097012;28;21816;-66
2023/09/03 13:31:46;;;;;;;;;;;21.80;53.80;;;;;;5091078;28;19931;-66
2023/09/03 13:34:13;;;;;;;;;;;21.80;53.80;;;;;;5101374;28;19927;-66
2023/09/03 13:36:40;;;;;;;;;;;21.80;53.80;;;;;;5098377;28;19934;-65
2023/09/03 13:39:07;;;;;;;;;;;21.80;53.80;;;;;;5107551;28;20027;-65
2023/09/03 13:41:35;;;;;;;;;;;21.80;53.80;;;;;;5076533;28;20238;-65
2023/09/03 13:44:02;;;;;;;;;;;21.80;53.80;;;;;;5080133;28;19932;-65
2023/09/03 13:46:29;;;;;;;;;;;21.80;53.90;;;;;;5089225;28;19928;-65
2023/09/03 13:48:56;;;;;;;;;;;21.80;53.90;;;;;;5093257;28;19929;-65
2023/09/03 13:51:22;;;;;;;;;;;21.80;53.90;;;;;;5080819;28;20292;-66
2023/09/03 13:53:53;;;;;;;;;;;21.80;53.90;;;;;;5116659;27;19924;-65
2023/09/03 13:56:20;;;;;;;;;;;21.90;54.10;;;;;;5115199;27;19931;-66
2023/09/03 13:58:48;;;;;;;;;;;21.90;54.10;;;;;;5109674;27;19981;-65
2023/09/03 14:01:14;;;;;;;;;;;21.90;54.10;;;;;;5108461;28;19932;-65
2023/09/03 14:03:41;;;;;;;;;;;21.90;54.20;;;;;;5098634;28;19920;-66
2023/09/03 14:06:08;;;;;;;;;;;21.90;54.20;;;;;;5082698;28;19991;-66
2023/09/03 14:08:35;;;;;;;;;;;21.90;54.20;;;;;;5095919;28;19977;-66
2023/09/03 14:11:02;;;;;;;;;;;21.90;54.20;;;;;;5109230;27;19924;-66
2023/09/03 14:13:28;;;;;;;;;;;21.90;54.20;;;;;;5091608;28;19932;-65
2023/09/03 14:15:57;;;;;;;;;;;21.90;54.20;;;;;;5087596;28;19928;-66
2023/09/03 14:18:27;;;;;;;;;;;21.90;54.10;;;;;;5095552;28;19923;-66